createdAt,value
2018-11-22T12:16:23.372Z,25.17
2018-11-22T12:18:52.423Z,22.27
2018-11-22T12:21:22.080Z,22.97
2018-11-22T12:23:51.211Z,21.70
2018-11-22T12:26:20.623Z,22.80
2018-11-22T12:28:54.226Z,30.97
2018-11-22T12:31:24.254Z,29.40
2018-11-22T12:33:58.942Z,27.20
2018-11-22T12:37:39.174Z,27.93
2018-11-22T12:40:08.944Z,31.67
2018-11-22T12:42:38.053Z,29.90
2018-11-22T12:45:09.959Z,25.57
2018-11-22T12:47:39.008Z,29.00
2018-11-22T12:50:09.361Z,36.07
2018-11-22T12:52:38.862Z,34.93
2018-11-22T12:55:09.253Z,24.20
2018-11-22T12:57:38.239Z,30.37
2018-11-22T13:00:10.333Z,34.13
2018-11-22T13:02:39.662Z,34.10
2018-11-22T13:05:10.485Z,25.27
2018-11-22T13:07:39.568Z,23.97
2018-11-22T13:10:11.157Z,30.40
2018-11-22T13:12:40.966Z,28.30
2018-11-22T13:15:12.272Z,23.70
2018-11-22T13:17:41.274Z,24.77
2018-11-22T13:20:13.750Z,32.00
2018-11-22T13:22:43.773Z,29.27
2018-11-22T13:25:14.602Z,25.77
2018-11-22T13:27:49.661Z,24.53
2018-11-22T13:30:21.938Z,27.40
2018-11-22T13:32:52.683Z,29.50
2018-11-22T13:35:25.084Z,26.53
2018-11-22T13:37:56.162Z,29.37
2018-11-22T13:40:25.300Z,26.37
2018-11-22T13:42:58.529Z,29.67
2018-11-22T13:45:28.853Z,37.13
2018-11-22T13:47:58.701Z,34.07
2018-11-22T13:50:30.205Z,33.57
2018-11-22T13:53:01.131Z,37.17
2018-11-22T13:55:33.082Z,40.57
2018-11-22T13:58:02.648Z,38.13
2018-11-22T14:00:33.447Z,38.07
2018-11-22T14:03:05.176Z,37.20
2018-11-22T14:05:34.779Z,36.10
2018-11-22T14:08:04.155Z,38.40
2018-11-22T14:10:34.440Z,41.40
2018-11-22T14:13:03.536Z,38.30
2018-11-22T14:15:33.392Z,42.60
2018-11-22T14:18:04.060Z,42.43
2018-11-22T14:20:34.540Z,40.33
2018-11-22T14:23:03.876Z,44.03
2018-11-22T14:25:33.563Z,38.07
2018-11-22T14:28:03.162Z,38.73
2018-11-22T14:30:35.972Z,38.03
2018-11-22T14:33:07.949Z,36.50
2018-11-22T14:35:43.770Z,35.17
2018-11-22T14:38:13.431Z,30.97
2018-11-22T14:40:45.614Z,38.03
2018-11-22T14:43:31.634Z,36.80
2018-11-22T14:46:04.043Z,34.10
2018-11-22T14:48:34.554Z,33.80
2018-11-22T14:51:25.537Z,33.23
2018-11-22T14:53:54.827Z,34.13
2018-11-22T14:56:24.195Z,44.07
2018-11-22T14:58:54.401Z,36.60
2018-11-22T15:01:23.933Z,38.03
2018-11-22T15:03:53.516Z,38.87
2018-11-22T15:06:22.612Z,38.77
2018-11-22T15:08:51.838Z,34.40
2018-11-22T15:11:21.684Z,32.90
2018-11-22T15:13:51.144Z,35.80
2018-11-22T15:16:20.947Z,36.13
2018-11-22T15:18:50.006Z,36.67
2018-11-22T15:48:38.341Z,33.27
2018-11-22T15:56:54.009Z,36.87
2018-11-22T15:59:28.550Z,38.30
2018-11-22T16:04:29.347Z,39.33
2018-11-22T16:06:58.728Z,39.73
2018-11-22T16:09:28.364Z,42.67
2018-11-22T16:11:57.975Z,44.23
2018-11-22T16:14:27.713Z,38.10
2018-11-22T16:16:57.505Z,36.10
2018-11-22T16:19:28.018Z,36.23
2018-11-22T16:21:57.335Z,32.83
2018-11-22T16:24:29.874Z,35.60
2018-11-22T16:26:59.100Z,39.77
2018-11-22T16:29:34.381Z,41.53
2018-11-22T16:32:05.391Z,40.50
2018-11-22T16:34:37.433Z,52.03
2018-11-22T16:37:06.847Z,37.17
2018-11-22T16:39:36.373Z,30.43
2018-11-22T16:42:05.729Z,37.57
2018-11-22T16:44:52.651Z,37.60
2018-11-22T16:50:15.843Z,31.07
2018-11-22T16:52:45.837Z,28.87
2018-11-22T16:55:17.688Z,32.77
2018-11-22T16:57:48.161Z,30.17
2018-11-22T17:00:20.998Z,30.70
2018-11-22T17:02:51.689Z,27.47
2018-11-22T17:05:22.926Z,28.17
2018-11-22T17:07:52.455Z,32.10
2018-11-22T17:10:23.082Z,34.33
2018-11-22T17:12:54.467Z,29.43
2018-11-22T17:15:25.925Z,29.83
2018-11-22T17:17:56.058Z,40.97
2018-11-22T17:20:25.956Z,27.53
2018-11-22T17:22:55.443Z,36.37
2018-11-22T17:25:27.611Z,30.17
2018-11-22T17:27:58.668Z,38.07
2018-11-22T17:30:32.509Z,36.57
2018-11-22T17:33:01.980Z,36.07
2018-11-22T17:35:32.169Z,39.97
2018-11-22T17:38:02.835Z,31.97
2018-11-22T17:40:35.878Z,34.97
2018-11-22T17:43:09.325Z,35.03
2018-11-22T17:45:42.828Z,36.87
2018-11-22T17:48:22.623Z,38.20
2018-11-22T17:50:53.955Z,36.37
2018-11-22T17:53:23.848Z,35.80
2018-11-22T17:55:52.468Z,42.30
2018-11-22T17:58:21.783Z,34.03
2018-11-22T18:03:31.123Z,39.77
2018-11-22T18:06:00.512Z,40.23
2018-11-22T18:08:30.761Z,36.40
2018-11-22T18:11:03.138Z,39.60
2018-11-22T18:13:33.700Z,43.50
2018-11-22T18:16:03.141Z,39.33
2018-11-22T18:18:34.421Z,33.30
2018-11-22T18:21:05.342Z,34.87
2018-11-22T18:23:37.465Z,35.90
2018-11-22T18:26:11.649Z,34.27
2018-11-22T18:28:41.529Z,37.87
2018-11-22T18:31:12.097Z,39.83
2018-11-22T18:33:41.502Z,37.40
2018-11-22T18:36:11.515Z,34.30
2018-11-22T18:38:46.270Z,37.10
2018-11-22T18:41:36.299Z,31.23
2018-11-22T18:44:23.236Z,41.77
2018-11-22T18:46:54.579Z,37.57
2018-11-22T18:49:24.234Z,37.13
2018-11-22T18:51:54.352Z,33.77
2018-11-22T18:54:23.861Z,38.77
2018-11-22T18:56:55.314Z,32.53
2018-11-22T18:59:24.718Z,37.67
2018-11-22T19:01:54.213Z,38.00
2018-11-22T19:04:24.784Z,35.47
2018-11-22T19:06:55.846Z,34.07
2018-11-22T19:09:25.331Z,32.57
2018-11-22T19:11:59.423Z,33.07
2018-11-22T19:14:29.469Z,33.97
2018-11-22T19:16:58.729Z,36.80
2018-11-22T19:19:28.000Z,36.37
2018-11-22T19:21:57.230Z,40.03
2018-11-22T19:24:26.440Z,37.57
2018-11-22T19:26:55.445Z,44.73
2018-11-22T19:29:24.527Z,36.00
2018-11-22T19:31:53.892Z,46.43
2018-11-22T19:34:23.109Z,40.97
2018-11-22T19:36:52.210Z,39.43
2018-11-22T19:39:21.224Z,43.07
2018-11-22T19:41:50.325Z,38.33
2018-11-22T19:44:19.469Z,44.70
2018-11-22T19:46:48.529Z,43.00
2018-11-22T19:49:18.013Z,46.50
2018-11-22T19:51:47.247Z,47.00
2018-11-22T19:54:16.335Z,43.90
2018-11-22T19:56:45.528Z,42.40
2018-11-22T19:59:14.645Z,39.60
2018-11-22T20:01:43.692Z,42.37
2018-11-22T20:04:12.780Z,45.63
2018-11-22T20:06:42.126Z,39.77
2018-11-22T20:09:12.718Z,42.43
2018-11-22T20:11:41.855Z,42.60
2018-11-22T20:14:11.070Z,40.87
2018-11-22T20:16:40.501Z,47.70
2018-11-22T20:19:09.652Z,53.83
2018-11-22T20:21:38.943Z,44.17
2018-11-22T20:24:08.170Z,44.50
2018-11-22T20:26:37.265Z,42.63
2018-11-22T20:29:06.605Z,43.30
2018-11-22T20:31:35.765Z,44.93
2018-11-22T20:34:05.073Z,44.67
2018-11-22T20:36:34.110Z,39.33
2018-11-22T20:39:03.471Z,45.17
2018-11-22T20:41:32.599Z,40.30
2018-11-22T20:44:01.629Z,36.77
2018-11-22T20:46:30.859Z,48.03
2018-11-22T20:48:59.976Z,47.03
2018-11-22T20:51:28.991Z,40.40
2018-11-22T20:53:58.293Z,46.13
2018-11-22T20:56:27.331Z,44.93
2018-11-22T20:58:56.479Z,51.63
2018-11-22T21:01:25.692Z,46.87
2018-11-22T21:03:54.793Z,48.47
2018-11-22T21:06:24.616Z,44.13
2018-11-22T21:08:53.617Z,43.33
2018-11-22T21:11:22.700Z,47.63
2018-11-22T21:13:51.793Z,47.17
2018-11-22T21:16:21.212Z,45.23
2018-11-22T21:18:50.335Z,48.63
2018-11-22T21:21:19.527Z,49.57
2018-11-22T21:23:48.622Z,46.17
2018-11-22T21:26:17.584Z,48.07
2018-11-22T21:28:46.575Z,46.07
2018-11-22T21:31:16.655Z,49.87
2018-11-22T21:33:46.813Z,50.03
2018-11-22T21:36:15.981Z,57.23
2018-11-22T21:38:44.995Z,49.90
2018-11-22T21:41:14.132Z,50.10
2018-11-22T21:43:43.195Z,51.37
2018-11-22T21:46:12.381Z,52.60
2018-11-22T21:48:41.519Z,54.03
2018-11-22T21:51:10.576Z,50.00
2018-11-22T21:53:39.791Z,50.40
2018-11-22T21:56:08.978Z,51.40
2018-11-22T21:58:38.018Z,57.57
2018-11-22T22:01:07.098Z,60.70
2018-11-22T22:03:36.311Z,65.70
2018-11-22T22:06:05.648Z,53.83
2018-11-22T22:08:34.825Z,64.63
2018-11-22T22:11:04.049Z,62.97
2018-11-22T22:13:33.086Z,69.47
2018-11-22T22:16:02.168Z,71.20
2018-11-22T22:18:31.294Z,69.60
2018-11-22T22:21:00.271Z,68.47
2018-11-22T22:23:29.286Z,66.10
2018-11-22T22:25:58.467Z,62.20
2018-11-22T22:28:27.463Z,63.37
2018-11-22T22:30:56.542Z,63.93
2018-11-22T22:33:25.644Z,71.03
2018-11-22T22:35:54.651Z,69.40
2018-11-22T22:38:23.659Z,69.53
2018-11-22T22:40:52.677Z,71.83
2018-11-22T22:43:21.743Z,71.37
2018-11-22T22:45:50.961Z,72.00
2018-11-22T22:48:20.053Z,75.37
2018-11-22T22:50:49.093Z,72.50
2018-11-22T22:53:18.201Z,71.60
2018-11-22T22:55:47.376Z,72.37
2018-11-22T22:58:17.200Z,76.83
2018-11-22T23:00:48.666Z,75.27
2018-11-22T23:03:17.879Z,68.33
2018-11-22T23:05:47.051Z,73.57
2018-11-22T23:08:16.198Z,78.80
2018-11-22T23:10:45.188Z,79.00
2018-11-22T23:13:14.273Z,69.43
2018-11-22T23:15:43.406Z,65.57
2018-11-22T23:18:13.232Z,65.70
2018-11-22T23:20:42.324Z,69.50
2018-11-22T23:23:11.587Z,70.33
2018-11-22T23:25:40.778Z,65.83
2018-11-22T23:28:09.888Z,67.77
2018-11-22T23:30:38.974Z,67.63
2018-11-22T23:33:09.090Z,65.00
2018-11-22T23:35:38.122Z,61.03
2018-11-22T23:38:07.175Z,67.13
2018-11-22T23:40:36.421Z,75.10
2018-11-22T23:43:06.218Z,68.87
2018-11-22T23:45:35.075Z,74.97
2018-11-22T23:48:04.158Z,65.83
2018-11-22T23:50:33.785Z,66.60
2018-11-22T23:53:03.972Z,69.93
2018-11-22T23:55:33.035Z,70.57
2018-11-22T23:58:02.128Z,71.77
